sensor_id;sensor_type;location;lat;lon;timestamp;pressure;altitude;pressure_sealevel;temperature;humidity
16331;BME280;8275;48.206;16.340;2022-09-03T00:01:34;99152.72;;;20.91;33.07
16331;BME280;8275;48.206;16.340;2022-09-03T00:04:11;99157.47;;;20.90;33.28
16331;BME280;8275;48.206;16.340;2022-09-03T00:06:59;99158.16;;;20.87;33.18
16331;BME280;8275;48.206;16.340;2022-09-03T00:09:35;99154.03;;;20.85;33.28
16331;BME280;8275;48.206;16.340;2022-09-03T00:12:13;99159.94;;;20.83;33.25
16331;BME280;8275;48.206;16.340;2022-09-03T00:14:48;99164.19;;;20.81;33.56
16331;BME280;8275;48.206;16.340;2022-09-03T00:17:21;99158.94;;;20.79;33.28
16331;BME280;8275;48.206;16.340;2022-09-03T00:19:55;99157.63;;;20.77;33.59
16331;BME280;8275;48.206;16.340;2022-09-03T00:22:30;99160.75;;;20.75;33.50
16331;BME280;8275;48.206;16.340;2022-09-03T00:25:03;99156.97;;;20.71;33.53
16331;BME280;8275;48.206;16.340;2022-09-03T00:27:38;99161.22;;;20.69;33.70
16331;BME280;8275;48.206;16.340;2022-09-03T00:30:10;99161.56;;;20.67;33.67
16331;BME280;8275;48.206;16.340;2022-09-03T00:32:47;99156.63;;;20.64;33.66
16331;BME280;8275;48.206;16.340;2022-09-03T00:35:24;99158.09;;;20.62;33.88
16331;BME280;8275;48.206;16.340;2022-09-03T00:37:54;99158.09;;;20.62;33.91
16331;BME280;8275;48.206;16.340;2022-09-03T00:40:55;99163.00;;;20.56;34.10
16331;BME280;8275;48.206;16.340;2022-09-03T00:43:43;99160.06;;;20.53;34.01
16331;BME280;8275;48.206;16.340;2022-09-03T00:46:22;99160.38;;;20.51;34.12
16331;BME280;8275;48.206;16.340;2022-09-03T00:49:22;99163.31;;;20.46;34.00
16331;BME280;8275;48.206;16.340;2022-09-03T00:52:02;99159.72;;;20.46;34.00
16331;BME280;8275;48.206;16.340;2022-09-03T00:54:42;99162.31;;;20.42;34.30
16331;BME280;8275;48.206;16.340;2022-09-03T00:57:29;99159.34;;;20.39;34.40
16331;BME280;8275;48.206;16.340;2022-09-03T01:00:08;99168.84;;;20.38;34.36
16331;BME280;8275;48.206;16.340;2022-09-03T01:02:56;99167.53;;;20.35;34.37
16331;BME280;8275;48.206;16.340;2022-09-03T01:05:43;99160.66;;;20.33;34.35
16331;BME280;8275;48.206;16.340;2022-09-03T01:08:28;99167.69;;;20.30;34.46
16331;BME280;8275;48.206;16.340;2022-09-03T01:11:13;99173.25;;;20.30;34.62
16331;BME280;8275;48.206;16.340;2022-09-03T01:13:49;99176.66;;;20.27;34.62
16331;BME280;8275;48.206;16.340;2022-09-03T01:16:31;99178.47;;;20.23;34.69
16331;BME280;8275;48.206;16.340;2022-09-03T01:19:12;99170.41;;;20.21;34.77
16331;BME280;8275;48.206;16.340;2022-09-03T01:22:07;99184.13;;;20.18;34.84
16331;BME280;8275;48.206;16.340;2022-09-03T01:25:08;99190.66;;;20.13;35.11
16331;BME280;8275;48.206;16.340;2022-09-03T01:27:57;99204.06;;;20.11;35.16
16331;BME280;8275;48.206;16.340;2022-09-03T01:30:29;99196.84;;;20.10;34.81
16331;BME280;8275;48.206;16.340;2022-09-03T01:33:07;99188.00;;;20.08;35.10
16331;BME280;8275;48.206;16.340;2022-09-03T01:35:46;99186.19;;;20.04;35.16
16331;BME280;8275;48.206;16.340;2022-09-03T01:38:23;99184.88;;;20.01;35.26
16331;BME280;8275;48.206;16.340;2022-09-03T01:41:05;99173.88;;;19.96;35.35
16331;BME280;8275;48.206;16.340;2022-09-03T01:43:59;99177.31;;;19.93;35.55
16331;BME280;8275;48.206;16.340;2022-09-03T01:46:36;99185.97;;;19.92;35.52
16331;BME280;8275;48.206;16.340;2022-09-03T01:49:15;99181.06;;;19.89;35.64
16331;BME280;8275;48.206;16.340;2022-09-03T01:51:58;99173.84;;;19.88;35.52
16331;BME280;8275;48.206;16.340;2022-09-03T01:54:50;99178.09;;;19.85;35.79
16331;BME280;8275;48.206;16.340;2022-09-03T01:57:46;99172.34;;;19.82;35.70
16331;BME280;8275;48.206;16.340;2022-09-03T02:00:19;99172.34;;;19.82;35.78
16331;BME280;8275;48.206;16.340;2022-09-03T02:02:50;99175.13;;;19.82;35.88
16331;BME280;8275;48.206;16.340;2022-09-03T02:05:22;99162.69;;;19.79;35.98
16331;BME280;8275;48.206;16.340;2022-09-03T02:07:57;99174.94;;;19.78;35.96
16331;BME280;8275;48.206;16.340;2022-09-03T02:10:30;99172.50;;;19.77;36.03
16331;BME280;8275;48.206;16.340;2022-09-03T02:13:04;99175.59;;;19.75;36.13
16331;BME280;8275;48.206;16.340;2022-09-03T02:15:39;99171.78;;;19.71;36.21
16331;BME280;8275;48.206;16.340;2022-09-03T02:18:15;99173.25;;;19.69;36.23
16331;BME280;8275;48.206;16.340;2022-09-03T02:20:47;99172.75;;;19.67;36.27
16331;BME280;8275;48.206;16.340;2022-09-03T02:23:16;99176.97;;;19.64;36.29
16331;BME280;8275;48.206;16.340;2022-09-03T02:25:57;99173.19;;;19.60;36.50
16331;BME280;8275;48.206;16.340;2022-09-03T02:28:29;99172.38;;;19.59;36.54
16331;BME280;8275;48.206;16.340;2022-09-03T02:31:01;99163.53;;;19.57;36.54
16331;BME280;8275;48.206;16.340;2022-09-03T02:33:37;99170.56;;;19.55;36.68
16331;BME280;8275;48.206;16.340;2022-09-03T02:36:10;99171.72;;;19.54;36.74
16331;BME280;8275;48.206;16.340;2022-09-03T02:38:41;99165.94;;;19.50;36.78
16331;BME280;8275;48.206;16.340;2022-09-03T02:41:10;99173.78;;;19.48;36.78
16331;BME280;8275;48.206;16.340;2022-09-03T02:43:44;99170.50;;;19.46;36.88
16331;BME280;8275;48.206;16.340;2022-09-03T02:46:22;99178.34;;;19.44;37.01
16331;BME280;8275;48.206;16.340;2022-09-03T02:48:53;99171.13;;;19.43;37.04
16331;BME280;8275;48.206;16.340;2022-09-03T02:51:22;99172.28;;;19.42;37.05
16331;BME280;8275;48.206;16.340;2022-09-03T02:53:52;99165.91;;;19.42;37.09
16331;BME280;8275;48.206;16.340;2022-09-03T02:56:21;99165.06;;;19.41;37.26
16331;BME280;8275;48.206;16.340;2022-09-03T02:58:51;99165.06;;;19.41;37.27
16331;BME280;8275;48.206;16.340;2022-09-03T03:01:22;99164.56;;;19.39;37.49
16331;BME280;8275;48.206;16.340;2022-09-03T03:03:51;99165.72;;;19.38;37.33
16331;BME280;8275;48.206;16.340;2022-09-03T03:06:20;99163.25;;;19.37;37.37
16331;BME280;8275;48.206;16.340;2022-09-03T03:08:49;99167.44;;;19.34;37.36
16331;BME280;8275;48.206;16.340;2022-09-03T03:11:18;99167.44;;;19.34;37.45
16331;BME280;8275;48.206;16.340;2022-09-03T03:13:51;99173.31;;;19.33;37.60
16331;BME280;8275;48.206;16.340;2022-09-03T03:16:21;99164.47;;;19.31;37.60
16331;BME280;8275;48.206;16.340;2022-09-03T03:18:50;99158.94;;;19.31;37.56
16331;BME280;8275;48.206;16.340;2022-09-03T03:21:19;99159.56;;;19.28;37.73
16331;BME280;8275;48.206;16.340;2022-09-03T03:23:47;99160.19;;;19.25;37.72
16331;BME280;8275;48.206;16.340;2022-09-03T03:26:18;99170.00;;;19.22;37.86
16331;BME280;8275;48.206;16.340;2022-09-03T03:28:48;99174.22;;;19.20;37.88
16331;BME280;8275;48.206;16.340;2022-09-03T03:31:19;99169.28;;;19.17;37.95
16331;BME280;8275;48.206;16.340;2022-09-03T03:33:53;99167.94;;;19.14;38.03
16331;BME280;8275;48.206;16.340;2022-09-03T03:36:24;99161.06;;;19.12;38.20
16331;BME280;8275;48.206;16.340;2022-09-03T03:38:54;99160.88;;;19.08;38.06
16331;BME280;8275;48.206;16.340;2022-09-03T03:41:27;99161.50;;;19.05;38.22
16331;BME280;8275;48.206;16.340;2022-09-03T03:43:59;99158.03;;;19.00;38.20
16331;BME280;8275;48.206;16.340;2022-09-03T03:46:32;99167.00;;;18.97;38.35
16331;BME280;8275;48.206;16.340;2022-09-03T03:49:03;99160.94;;;18.95;38.57
16331;BME280;8275;48.206;16.340;2022-09-03T03:51:33;99168.72;;;18.92;38.56
16331;BME280;8275;48.206;16.340;2022-09-03T03:54:02;99171.00;;;18.90;38.64
16331;BME280;8275;48.206;16.340;2022-09-03T03:56:32;99182.75;;;18.87;38.68
16331;BME280;8275;48.206;16.340;2022-09-03T03:59:01;99180.28;;;18.86;38.68
16331;BME280;8275;48.206;16.340;2022-09-03T04:01:30;99188.59;;;18.86;38.66
16331;BME280;8275;48.206;16.340;2022-09-03T04:03:59;99170.63;;;18.83;38.85
16331;BME280;8275;48.206;16.340;2022-09-03T04:06:29;99184.50;;;18.83;38.79
16331;BME280;8275;48.206;16.340;2022-09-03T04:08:57;99176.50;;;18.82;38.97
16331;BME280;8275;48.206;16.340;2022-09-03T04:11:25;99185.94;;;18.81;39.08
16331;BME280;8275;48.206;16.340;2022-09-03T04:13:54;99188.19;;;18.79;39.03
16331;BME280;8275;48.206;16.340;2022-09-03T04:16:24;99184.63;;;18.78;39.16
16331;BME280;8275;48.206;16.340;2022-09-03T04:18:54;99184.09;;;18.76;39.00
16331;BME280;8275;48.206;16.340;2022-09-03T04:21:25;99193.56;;;18.75;39.21
16331;BME280;8275;48.206;16.340;2022-09-03T04:23:57;99189.13;;;18.74;39.43
16331;BME280;8275;48.206;16.340;2022-09-03T04:26:28;99182.78;;;18.74;39.37
16331;BME280;8275;48.206;16.340;2022-09-03T04:28:58;99187.81;;;18.72;39.48
16331;BME280;8275;48.206;16.340;2022-09-03T04:31:28;99192.25;;;18.73;39.45
16331;BME280;8275;48.206;16.340;2022-09-03T04:33:58;99192.56;;;18.71;39.57
16331;BME280;8275;48.206;16.340;2022-09-03T04:36:28;99193.34;;;18.72;39.64
16331;BME280;8275;48.206;16.340;2022-09-03T04:38:59;99188.97;;;18.71;39.57
16331;BME280;8275;48.206;16.340;2022-09-03T04:41:30;99189.78;;;18.71;39.61
16331;BME280;8275;48.206;16.340;2022-09-03T04:43:59;99192.25;;;18.73;39.73
16331;BME280;8275;48.206;16.340;2022-09-03T04:46:28;99188.34;;;18.74;39.80
16331;BME280;8275;48.206;16.340;2022-09-03T04:49:00;99191.31;;;18.77;39.66
16331;BME280;8275;48.206;16.340;2022-09-03T04:51:29;99190.97;;;18.79;39.66
16331;BME280;8275;48.206;16.340;2022-09-03T04:54:00;99197.88;;;18.81;39.87
16331;BME280;8275;48.206;16.340;2022-09-03T04:56:32;99198.38;;;18.83;39.90
16331;BME280;8275;48.206;16.340;2022-09-03T04:59:03;99194.97;;;18.86;39.67
16331;BME280;8275;48.206;16.340;2022-09-03T05:01:34;99201.53;;;18.90;39.92
16331;BME280;8275;48.206;16.340;2022-09-03T05:04:04;99198.16;;;18.93;39.87
16331;BME280;8275;48.206;16.340;2022-09-03T05:06:33;99193.94;;;18.96;39.87
16331;BME280;8275;48.206;16.340;2022-09-03T05:09:04;99192.16;;;19.00;39.83
16331;BME280;8275;48.206;16.340;2022-09-03T05:11:33;99195.66;;;19.06;39.93
16331;BME280;8275;48.206;16.340;2022-09-03T05:14:02;99198.94;;;19.08;39.98
16331;BME280;8275;48.206;16.340;2022-09-03T05:16:31;99195.53;;;19.11;39.98
16331;BME280;8275;48.206;16.340;2022-09-03T05:19:00;99196.53;;;19.15;39.86
16331;BME280;8275;48.206;16.340;2022-09-03T05:21:32;99203.09;;;19.19;40.08
16331;BME280;8275;48.206;16.340;2022-09-03T05:24:04;99204.13;;;19.23;40.05
16331;BME280;8275;48.206;16.340;2022-09-03T05:26:37;99205.66;;;19.29;39.92
16331;BME280;8275;48.206;16.340;2022-09-03T05:29:07;99197.72;;;19.36;39.97
16331;BME280;8275;48.206;16.340;2022-09-03T05:31:37;99196.47;;;19.42;39.97
16331;BME280;8275;48.206;16.340;2022-09-03T05:34:06;99193.22;;;19.48;39.91
16331;BME280;8275;48.206;16.340;2022-09-03T05:36:42;99199.16;;;19.55;39.99
16331;BME280;8275;48.206;16.340;2022-09-03T05:39:14;99192.84;;;19.64;39.97
16331;BME280;8275;48.206;16.340;2022-09-03T05:41:42;99192.06;;;19.72;39.85
16331;BME280;8275;48.206;16.340;2022-09-03T05:44:11;99190.50;;;19.79;39.93
16331;BME280;8275;48.206;16.340;2022-09-03T05:46:40;99189.69;;;19.87;39.80
16331;BME280;8275;48.206;16.340;2022-09-03T05:49:08;99197.59;;;19.94;39.73
16331;BME280;8275;48.206;16.340;2022-09-03T05:51:37;99202.38;;;20.02;39.83
16331;BME280;8275;48.206;16.340;2022-09-03T05:54:06;99188.50;;;20.10;39.56
16331;BME280;8275;48.206;16.340;2022-09-03T05:56:38;99195.59;;;20.16;39.69
16331;BME280;8275;48.206;16.340;2022-09-03T05:59:09;99192.38;;;20.23;39.52
16331;BME280;8275;48.206;16.340;2022-09-03T06:01:42;99183.22;;;20.31;39.45
16331;BME280;8275;48.206;16.340;2022-09-03T06:04:18;99186.84;;;20.40;39.46
16331;BME280;8275;48.206;16.340;2022-09-03T06:06:47;99192.63;;;20.52;39.34
16331;BME280;8275;48.206;16.340;2022-09-03T06:09:18;99195.47;;;20.69;39.51
16331;BME280;8275;48.206;16.340;2022-09-03T06:11:48;99184.53;;;20.90;39.29
16331;BME280;8275;48.206;16.340;2022-09-03T06:14:19;99189.97;;;21.12;39.23
16331;BME280;8275;48.206;16.340;2022-09-03T06:16:49;99194.38;;;21.30;39.05
16331;BME280;8275;48.206;16.340;2022-09-03T06:19:19;99179.78;;;21.42;38.78
16331;BME280;8275;48.206;16.340;2022-09-03T06:21:48;99180.09;;;21.49;38.40
16331;BME280;8275;48.206;16.340;2022-09-03T06:24:18;99182.06;;;21.57;38.45
16331;BME280;8275;48.206;16.340;2022-09-03T06:26:53;99184.00;;;21.65;38.47
16331;BME280;8275;48.206;16.340;2022-09-03T06:29:22;99188.78;;;21.73;38.21
16331;BME280;8275;48.206;16.340;2022-09-03T06:31:50;99186.78;;;21.82;38.36
16331;BME280;8275;48.206;16.340;2022-09-03T06:34:19;99184.31;;;21.89;38.30
16331;BME280;8275;48.206;16.340;2022-09-03T06:36:48;99186.13;;;21.94;38.17
16331;BME280;8275;48.206;16.340;2022-09-03T06:39:20;99193.16;;;22.00;38.04
16331;BME280;8275;48.206;16.340;2022-09-03T06:41:49;99185.91;;;22.07;37.91
16331;BME280;8275;48.206;16.340;2022-09-03T06:44:20;99189.78;;;22.15;38.07
16331;BME280;8275;48.206;16.340;2022-09-03T06:46:49;99181.88;;;22.25;38.29
16331;BME280;8275;48.206;16.340;2022-09-03T06:49:19;99186.94;;;22.32;37.79
16331;BME280;8275;48.206;16.340;2022-09-03T06:51:48;99179.81;;;22.43;38.01
16331;BME280;8275;48.206;16.340;2022-09-03T06:54:16;99173.53;;;22.55;37.58
16331;BME280;8275;48.206;16.340;2022-09-03T06:56:45;99172.81;;;22.66;37.34
16331;BME280;8275;48.206;16.340;2022-09-03T06:59:14;99176.84;;;22.77;37.51
16331;BME280;8275;48.206;16.340;2022-09-03T07:01:44;99181.22;;;22.87;37.23
16331;BME280;8275;48.206;16.340;2022-09-03T07:04:14;99174.31;;;22.93;37.19
16331;BME280;8275;48.206;16.340;2022-09-03T07:06:47;99181.78;;;23.01;37.55
16331;BME280;8275;48.206;16.340;2022-09-03T07:09:15;99188.47;;;23.09;37.47
16331;BME280;8275;48.206;16.340;2022-09-03T07:11:45;99187.09;;;23.15;37.03
16331;BME280;8275;48.206;16.340;2022-09-03T07:14:17;99184.22;;;23.23;36.83
16331;BME280;8275;48.206;16.340;2022-09-03T07:16:48;99188.31;;;23.34;36.88
16331;BME280;8275;48.206;16.340;2022-09-03T07:19:17;99175.19;;;23.47;36.82
16331;BME280;8275;48.206;16.340;2022-09-03T07:21:45;99177.66;;;23.60;36.76
16331;BME280;8275;48.206;16.340;2022-09-03T07:24:18;99175.75;;;23.73;36.27
16331;BME280;8275;48.206;16.340;2022-09-03T07:26:48;99174.13;;;23.84;36.35
16331;BME280;8275;48.206;16.340;2022-09-03T07:29:20;99187.34;;;23.96;36.08
16331;BME280;8275;48.206;16.340;2022-09-03T07:31:51;99181.81;;;24.08;35.83
16331;BME280;8275;48.206;16.340;2022-09-03T07:34:21;99179.38;;;24.18;35.98
16331;BME280;8275;48.206;16.340;2022-09-03T07:36:53;99178.91;;;24.28;35.88
16331;BME280;8275;48.206;16.340;2022-09-03T07:39:22;99186.38;;;24.36;35.60
16331;BME280;8275;48.206;16.340;2022-09-03T07:41:50;99184.75;;;24.48;35.50
16331;BME280;8275;48.206;16.340;2022-09-03T07:44:19;99178.69;;;24.58;35.32
16331;BME280;8275;48.206;16.340;2022-09-03T07:46:47;99172.94;;;24.66;35.40
16331;BME280;8275;48.206;16.340;2022-09-03T07:49:20;99177.97;;;24.73;35.31
16331;BME280;8275;48.206;16.340;2022-09-03T07:51:49;99177.88;;;24.81;35.25
16331;BME280;8275;48.206;16.340;2022-09-03T07:54:20;99176.09;;;24.89;35.06
16331;BME280;8275;48.206;16.340;2022-09-03T07:56:50;99176.31;;;24.96;35.02
16331;BME280;8275;48.206;16.340;2022-09-03T07:59:18;99179.81;;;25.05;35.14
16331;BME280;8275;48.206;16.340;2022-09-03T08:01:49;99175.25;;;25.13;34.88
16331;BME280;8275;48.206;16.340;2022-09-03T08:04:19;99184.31;;;25.22;34.86
16331;BME280;8275;48.206;16.340;2022-09-03T08:06:49;99185.44;;;25.33;34.85
16331;BME280;8275;48.206;16.340;2022-09-03T08:09:21;99187.31;;;25.41;34.74
16331;BME280;8275;48.206;16.340;2022-09-03T08:11:50;99184.81;;;25.51;34.71
16331;BME280;8275;48.206;16.340;2022-09-03T08:14:18;99176.38;;;25.63;34.79
16331;BME280;8275;48.206;16.340;2022-09-03T08:16:48;99170.59;;;25.72;34.41
16331;BME280;8275;48.206;16.340;2022-09-03T08:19:19;99176.13;;;25.84;34.69
16331;BME280;8275;48.206;16.340;2022-09-03T08:21:49;99172.72;;;25.91;34.73
16331;BME280;8275;48.206;16.340;2022-09-03T08:24:18;99176.53;;;25.98;34.25
16331;BME280;8275;48.206;16.340;2022-09-03T08:26:47;99172.84;;;26.10;34.45
16331;BME280;8275;48.206;16.340;2022-09-03T08:29:21;99173.50;;;26.19;34.44
16331;BME280;8275;48.206;16.340;2022-09-03T08:31:49;99173.31;;;26.27;34.41
16331;BME280;8275;48.206;16.340;2022-09-03T08:34:19;99171.50;;;26.35;33.84
16331;BME280;8275;48.206;16.340;2022-09-03T08:36:48;99162.88;;;26.43;33.86
16331;BME280;8275;48.206;16.340;2022-09-03T08:39:19;99169.44;;;26.48;33.85
16331;BME280;8275;48.206;16.340;2022-09-03T08:42:15;99158.63;;;26.50;34.06
16331;BME280;8275;48.206;16.340;2022-09-03T08:44:48;99159.00;;;26.64;34.05
16331;BME280;8275;48.206;16.340;2022-09-03T08:47:22;99158.22;;;26.67;33.69
16331;BME280;8275;48.206;16.340;2022-09-03T08:49:57;99147.09;;;26.70;33.98
16331;BME280;8275;48.206;16.340;2022-09-03T08:52:34;99152.78;;;26.74;33.68
16331;BME280;8275;48.206;16.340;2022-09-03T08:55:19;99153.25;;;26.76;34.02
16331;BME280;8275;48.206;16.340;2022-09-03T08:57:54;99147.09;;;26.86;33.99
16331;BME280;8275;48.206;16.340;2022-09-03T09:00:24;99148.06;;;26.93;33.49
16331;BME280;8275;48.206;16.340;2022-09-03T09:03:22;99155.47;;;27.01;33.59
16331;BME280;8275;48.206;16.340;2022-09-03T09:06:04;99143.25;;;27.13;33.69
16331;BME280;8275;48.206;16.340;2022-09-03T09:08:43;99144.75;;;27.26;33.17
16331;BME280;8275;48.206;16.340;2022-09-03T09:11:36;99141.53;;;27.43;32.98
16331;BME280;8275;48.206;16.340;2022-09-03T09:14:13;99135.06;;;27.62;32.75
16331;BME280;8275;48.206;16.340;2022-09-03T09:16:52;99134.97;;;27.77;33.08
16331;BME280;8275;48.206;16.340;2022-09-03T09:19:43;99136.34;;;27.87;32.70
16331;BME280;8275;48.206;16.340;2022-09-03T09:22:25;99136.53;;;27.98;32.63
16331;BME280;8275;48.206;16.340;2022-09-03T09:25:00;99134.19;;;28.00;32.58
16331;BME280;8275;48.206;16.340;2022-09-03T09:27:31;99134.53;;;27.98;32.30
16331;BME280;8275;48.206;16.340;2022-09-03T09:30:07;99123.59;;;27.93;32.51
16331;BME280;8275;48.206;16.340;2022-09-03T09:32:36;99125.59;;;27.93;32.19
16331;BME280;8275;48.206;16.340;2022-09-03T09:35:08;99126.66;;;27.84;31.95
16331;BME280;8275;48.206;16.340;2022-09-03T09:37:48;99125.78;;;27.80;31.95
16331;BME280;8275;48.206;16.340;2022-09-03T09:40:30;99132.97;;;27.78;32.08
16331;BME280;8275;48.206;16.340;2022-09-03T09:43:05;99133.78;;;27.78;32.09
16331;BME280;8275;48.206;16.340;2022-09-03T09:45:34;99125.41;;;27.82;31.89
16331;BME280;8275;48.206;16.340;2022-09-03T09:48:10;99123.00;;;27.84;32.14
16331;BME280;8275;48.206;16.340;2022-09-03T09:50:41;99125.53;;;27.89;31.82
16331;BME280;8275;48.206;16.340;2022-09-03T09:53:12;99128.44;;;27.93;31.67
16331;BME280;8275;48.206;16.340;2022-09-03T09:55:52;99130.84;;;27.94;32.09
16331;BME280;8275;48.206;16.340;2022-09-03T09:58:23;99117.22;;;27.96;32.07
16331;BME280;8275;48.206;16.340;2022-09-03T10:01:13;99117.59;;;27.95;31.59
16331;BME280;8275;48.206;16.340;2022-09-03T10:03:49;99120.09;;;28.00;31.82
16331;BME280;8275;48.206;16.340;2022-09-03T10:06:18;99123.44;;;28.05;31.61
16331;BME280;8275;48.206;16.340;2022-09-03T10:09:12;99113.81;;;28.06;31.92
16331;BME280;8275;48.206;16.340;2022-09-03T10:11:45;99119.56;;;28.13;31.46
16331;BME280;8275;48.206;16.340;2022-09-03T10:14:22;99117.19;;;28.15;31.44
16331;BME280;8275;48.206;16.340;2022-09-03T10:16:59;99117.97;;;28.16;31.28
16331;BME280;8275;48.206;16.340;2022-09-03T10:19:40;99118.78;;;28.16;31.54
16331;BME280;8275;48.206;16.340;2022-09-03T10:22:32;99121.69;;;28.20;31.50
16331;BME280;8275;48.206;16.340;2022-09-03T10:25:30;99122.88;;;28.19;31.84
16331;BME280;8275;48.206;16.340;2022-09-03T10:28:07;99120.91;;;28.23;31.33
16331;BME280;8275;48.206;16.340;2022-09-03T10:31:11;99113.28;;;28.23;31.98
16331;BME280;8275;48.206;16.340;2022-09-03T10:33:47;99113.84;;;28.32;31.64
16331;BME280;8275;48.206;16.340;2022-09-03T10:36:23;99105.88;;;28.38;31.65
16331;BME280;8275;48.206;16.340;2022-09-03T10:39:03;99111.78;;;28.56;31.77
16331;BME280;8275;48.206;16.340;2022-09-03T10:41:44;99108.28;;;28.88;31.42
16331;BME280;8275;48.206;16.340;2022-09-03T10:44:45;99097.28;;;29.39;31.40
16331;BME280;8275;48.206;16.340;2022-09-03T10:47:31;99098.66;;;29.89;30.87
16331;BME280;8275;48.206;16.340;2022-09-03T10:50:12;99086.25;;;30.44;30.62
16331;BME280;8275;48.206;16.340;2022-09-03T10:53:03;99078.53;;;30.99;30.27
16331;BME280;8275;48.206;16.340;2022-09-03T10:55:46;99085.28;;;31.56;29.95
16331;BME280;8275;48.206;16.340;2022-09-03T10:58:51;99078.09;;;31.98;29.22
16331;BME280;8275;48.206;16.340;2022-09-03T11:01:31;99078.91;;;32.26;28.77
16331;BME280;8275;48.206;16.340;2022-09-03T11:04:18;99082.16;;;32.53;28.28
16331;BME280;8275;48.206;16.340;2022-09-03T11:06:53;99087.75;;;32.92;27.64
16331;BME280;8275;48.206;16.340;2022-09-03T11:09:28;99074.63;;;33.40;27.35
16331;BME280;8275;48.206;16.340;2022-09-03T11:12:03;99077.56;;;33.95;26.83
16331;BME280;8275;48.206;16.340;2022-09-03T11:14:39;99063.34;;;34.46;26.28
16331;BME280;8275;48.206;16.340;2022-09-03T11:17:13;99068.03;;;35.04;25.93
16331;BME280;8275;48.206;16.340;2022-09-03T11:19:49;99056.41;;;35.56;25.27
16331;BME280;8275;48.206;16.340;2022-09-03T11:22:20;99062.63;;;36.04;24.55
16331;BME280;8275;48.206;16.340;2022-09-03T11:24:53;99059.75;;;36.54;23.94
16331;BME280;8275;48.206;16.340;2022-09-03T11:27:34;99060.72;;;36.90;23.65
16331;BME280;8275;48.206;16.340;2022-09-03T11:30:08;99050.78;;;37.18;23.01
16331;BME280;8275;48.206;16.340;2022-09-03T11:32:47;99060.03;;;37.45;22.93
16331;BME280;8275;48.206;16.340;2022-09-03T11:35:27;99054.72;;;37.63;22.46
16331;BME280;8275;48.206;16.340;2022-09-03T11:37:59;99058.13;;;37.74;21.97
16331;BME280;8275;48.206;16.340;2022-09-03T11:40:32;99053.38;;;38.04;21.81
16331;BME280;8275;48.206;16.340;2022-09-03T11:43:07;99058.50;;;38.44;21.39
16331;BME280;8275;48.206;16.340;2022-09-03T11:45:40;99054.59;;;38.83;21.15
16331;BME280;8275;48.206;16.340;2022-09-03T11:48:34;99045.41;;;39.33;20.70
16331;BME280;8275;48.206;16.340;2022-09-03T11:51:14;99046.06;;;39.91;20.46
16331;BME280;8275;48.206;16.340;2022-09-03T11:53:54;99043.06;;;40.32;19.69
16331;BME280;8275;48.206;16.340;2022-09-03T11:56:24;99044.66;;;40.46;19.11
16331;BME280;8275;48.206;16.340;2022-09-03T11:59:05;99062.03;;;40.05;19.30
16331;BME280;8275;48.206;16.340;2022-09-03T12:01:48;99045.66;;;39.39;19.38
16331;BME280;8275;48.206;16.340;2022-09-03T12:04:23;99050.50;;;38.84;19.60
16331;BME280;8275;48.206;16.340;2022-09-03T12:13:09;99060.31;;;37.31;20.32
16331;BME280;8275;48.206;16.340;2022-09-03T12:16:35;99066.81;;;36.92;20.71
16331;BME280;8275;48.206;16.340;2022-09-03T12:19:14;99065.97;;;36.72;20.69
16331;BME280;8275;48.206;16.340;2022-09-03T12:21:48;99057.94;;;36.63;20.91
16331;BME280;8275;48.206;16.340;2022-09-03T12:24:18;99072.44;;;36.53;20.71
16331;BME280;8275;48.206;16.340;2022-09-03T12:26:49;99057.88;;;36.44;20.96
16331;BME280;8275;48.206;16.340;2022-09-03T12:29:22;99055.44;;;36.46;20.77
16331;BME280;8275;48.206;16.340;2022-09-03T12:31:54;99053.63;;;36.55;20.77
16331;BME280;8275;48.206;16.340;2022-09-03T12:34:24;99050.97;;;36.88;20.60
16331;BME280;8275;48.206;16.340;2022-09-03T12:36:54;99055.69;;;37.37;20.48
16331;BME280;8275;48.206;16.340;2022-09-03T12:39:24;99051.47;;;37.97;20.19
16331;BME280;8275;48.206;16.340;2022-09-03T12:42:21;99036.28;;;38.64;19.90
16331;BME280;8275;48.206;16.340;2022-09-03T12:44:51;99043.13;;;39.12;19.02
16331;BME280;8275;48.206;16.340;2022-09-03T12:47:22;99037.66;;;39.46;18.93
16331;BME280;8275;48.206;16.340;2022-09-03T12:50:11;99043.31;;;39.87;18.69
16331;BME280;8275;48.206;16.340;2022-09-03T12:52:43;99042.25;;;40.32;17.91
16331;BME280;8275;48.206;16.340;2022-09-03T12:55:28;99033.06;;;40.84;18.01
16331;BME280;8275;48.206;16.340;2022-09-03T12:58:04;99025.69;;;41.39;17.27
16331;BME280;8275;48.206;16.340;2022-09-03T13:00:44;99042.16;;;42.00;16.51
16331;BME280;8275;48.206;16.340;2022-09-03T13:03:18;99027.41;;;42.46;16.31
16331;BME280;8275;48.206;16.340;2022-09-03T13:05:53;99020.66;;;42.89;15.79
16331;BME280;8275;48.206;16.340;2022-09-03T13:08:26;99023.31;;;43.29;15.55
16331;BME280;8275;48.206;16.340;2022-09-03T13:10:59;99024.88;;;43.48;15.46
16331;BME280;8275;48.206;16.340;2022-09-03T13:13:32;99030.25;;;43.82;15.07
16331;BME280;8275;48.206;16.340;2022-09-03T13:16:23;99016.75;;;44.21;15.31
16331;BME280;8275;48.206;16.340;2022-09-03T13:19:05;99021.31;;;44.46;14.45
16331;BME280;8275;48.206;16.340;2022-09-03T13:21:47;99023.38;;;44.45;14.51
16331;BME280;8275;48.206;16.340;2022-09-03T13:24:33;99013.81;;;44.30;14.34
16331;BME280;8275;48.206;16.340;2022-09-03T13:27:18;99017.31;;;44.11;13.79
16331;BME280;8275;48.206;16.340;2022-09-03T13:30:01;99012.94;;;43.82;14.47
16331;BME280;8275;48.206;16.340;2022-09-03T13:32:49;99008.69;;;43.51;14.47
16331;BME280;8275;48.206;16.340;2022-09-03T13:35:28;99007.47;;;43.06;14.39
16331;BME280;8275;48.206;16.340;2022-09-03T13:38:08;99003.78;;;42.60;14.57
16331;BME280;8275;48.206;16.340;2022-09-03T13:40:46;99003.41;;;42.31;14.58
16331;BME280;8275;48.206;16.340;2022-09-03T13:43:29;99002.56;;;42.13;14.79
16331;BME280;8275;48.206;16.340;2022-09-03T13:46:05;99008.56;;;41.96;14.82
16331;BME280;8275;48.206;16.340;2022-09-03T13:48:38;99004.00;;;42.08;14.89